Flight Track Log - Related Links

Times and Time Zones

All times are in EDT time to prevent confusion due to time zone crossing. See the JTA556 flight status page for this flight to view local times or setup timezone preferences in your user account.

Time Position Orientation Groundspeed Altitude Reporting Facility
EDT Latitude Longitude Course Direction KTS MPH feet Rate Location/Type
Mon 09:41:00 PM 25.1247 125.8532 56° Northeast  Level Estimated
Mon 09:42:00 PM 25.1815 125.9466 56° Northeast  Level Estimated
Mon 09:43:00 PM 25.2382 126.0400 56° Northeast  Level Estimated
Mon 09:44:00 PM 25.2949 126.1335 56° Northeast  Level Estimated
Mon 09:45:00 PM 25.3515 126.2271 56° Northeast  Level Estimated
Mon 09:46:00 PM 25.4080 126.3207 56° Northeast  Level Estimated
Mon 09:47:00 PM 25.4645 126.4145 56° Northeast  Level Estimated
Mon 09:48:00 PM 25.5209 126.5083 56° Northeast  Level Estimated
Mon 09:49:00 PM 25.5773 126.6023 56° Northeast  Level Estimated
Mon 09:50:00 PM 25.6336 126.6963 56° Northeast  Level Estimated
Mon 09:51:00 PM 25.6898 126.7904 56° Northeast  Level Estimated
Mon 09:52:00 PM 25.7460 126.8846 56° Northeast  Level Estimated
Mon 09:53:00 PM 25.8021 126.9789 57° Northeast  Level Estimated
Mon 09:54:00 PM 25.8582 127.0733 57° Northeast  Level Estimated
Mon 09:55:00 PM 25.9142 127.1678 57° Northeast  Level Estimated
Mon 09:56:00 PM 25.9701 127.2623 57° Northeast  Level Estimated
Mon 09:57:00 PM 26.0260 127.3570 57° Northeast  Level Estimated
Mon 09:58:00 PM 26.0818 127.4517 57° Northeast  Level Estimated
Mon 09:59:00 PM 26.1375 127.5465 57° Northeast  Level Estimated
Mon 10:00:00 PM 26.1932 127.6415 57° Northeast  Level Estimated
Mon 10:01:00 PM 26.1958 127.6459 57° Northeast  Level Estimated
Mon 10:02:00 PM 26.1958 127.6459 347° North  Level Estimated
Mon 10:03:00 PM 26.1958 127.6459 347° North  Level Estimated
Mon 10:04:00 PM 26.1958 127.6459 347° North  Level Estimated
Mon 10:05:00 PM 26.1958 127.6459 347° North  Level Estimated
Mon 10:06:00 PM 26.1958 127.6459 347° North  Level Estimated
Mon 10:07:00 PM 26.1958 127.6459 347° North  Level Estimated

Login

Don't have an account? Register now (free) for customized features, flight alerts, and more!